sensor_id;sensor_type;location;lat;lon;timestamp;pressure;altitude;pressure_sealevel;temperature;humidity
76070;BME280;64768;51.738;5.852;2022-12-13T00:01:54;101291.44;;;-3.28;90.07
76070;BME280;64768;51.738;5.852;2022-12-13T00:04:24;101284.25;;;-3.28;90.07
76070;BME280;64768;51.738;5.852;2022-12-13T00:06:55;101288.22;;;-3.25;89.93
76070;BME280;64768;51.738;5.852;2022-12-13T00:09:24;101285.63;;;-3.30;90.29
76070;BME280;64768;51.738;5.852;2022-12-13T00:11:52;101291.44;;;-3.28;89.93
76070;BME280;64768;51.738;5.852;2022-12-13T00:14:21;101280.72;;;-3.23;90.08
76070;BME280;64768;51.738;5.852;2022-12-13T00:16:49;101284.94;;;-3.22;89.85
76070;BME280;64768;51.738;5.852;2022-12-13T00:19:18;101282.59;;;-3.24;90.04
76070;BME280;64768;51.738;5.852;2022-12-13T00:21:48;101282.88;;;-3.25;89.98
76070;BME280;64768;51.738;5.852;2022-12-13T00:24:19;101284.53;;;-3.29;89.82
76070;BME280;64768;51.738;5.852;2022-12-13T00:26:47;101280.31;;;-3.30;89.84
76070;BME280;64768;51.738;5.852;2022-12-13T00:29:16;101286.91;;;-3.28;90.21
76070;BME280;64768;51.738;5.852;2022-12-13T00:31:45;101278.22;;;-3.20;89.77
76070;BME280;64768;51.738;5.852;2022-12-13T00:34:14;101271.72;;;-3.27;89.76
76070;BME280;64768;51.738;5.852;2022-12-13T00:36:43;101281.88;;;-3.29;89.89
76070;BME280;64768;51.738;5.852;2022-12-13T00:39:11;101280.31;;;-3.30;89.91
76070;BME280;64768;51.738;5.852;2022-12-13T00:41:44;101286.72;;;-3.32;89.85
76070;BME280;64768;51.738;5.852;2022-12-13T00:44:13;101276.66;;;-3.35;89.88
76070;BME280;64768;51.738;5.852;2022-12-13T00:46:44;101274.78;;;-3.34;89.96
76070;BME280;64768;51.738;5.852;2022-12-13T00:49:13;101274.50;;;-3.33;89.79
76070;BME280;64768;51.738;5.852;2022-12-13T00:51:41;101278.72;;;-3.32;89.64
76070;BME280;64768;51.738;5.852;2022-12-13T00:54:10;101277.94;;;-3.32;90.17
76070;BME280;64768;51.738;5.852;2022-12-13T00:56:38;101279.03;;;-3.33;90.11
76070;BME280;64768;51.738;5.852;2022-12-13T00:59:13;101271.03;;;-3.33;90.00
76070;BME280;64768;51.738;5.852;2022-12-13T01:01:42;101270.13;;;-3.28;89.64
76070;BME280;64768;51.738;5.852;2022-12-13T01:04:11;101277.34;;;-3.29;89.74
76070;BME280;64768;51.738;5.852;2022-12-13T01:06:41;101270.94;;;-3.28;89.78
76070;BME280;64768;51.738;5.852;2022-12-13T01:09:13;101274.97;;;-3.30;89.50
76070;BME280;64768;51.738;5.852;2022-12-13T01:11:42;101260.56;;;-3.29;89.46
76070;BME280;64768;51.738;5.852;2022-12-13T01:14:15;101262.16;;;-3.28;89.41
76070;BME280;64768;51.738;5.852;2022-12-13T01:16:43;101270.75;;;-3.32;89.57
76070;BME280;64768;51.738;5.852;2022-12-13T01:19:12;101263.22;;;-3.29;89.55
76070;BME280;64768;51.738;5.852;2022-12-13T01:21:40;101269.75;;;-3.36;90.01
76070;BME280;64768;51.738;5.852;2022-12-13T01:24:09;101271.34;;;-3.35;89.46
76070;BME280;64768;51.738;5.852;2022-12-13T01:26:38;101269.06;;;-3.27;89.57
76070;BME280;64768;51.738;5.852;2022-12-13T01:29:06;101273.81;;;-3.24;89.66
76070;BME280;64768;51.738;5.852;2022-12-13T01:31:38;101279.31;;;-3.35;89.55
76070;BME280;64768;51.738;5.852;2022-12-13T01:34:07;101278.44;;;-3.30;89.35
76070;BME280;64768;51.738;5.852;2022-12-13T01:36:42;101283.56;;;-3.34;89.69
76070;BME280;64768;51.738;5.852;2022-12-13T01:39:13;101285.16;;;-3.33;89.15
76070;BME280;64768;51.738;5.852;2022-12-13T01:41:43;101284.84;;;-3.31;89.49
76070;BME280;64768;51.738;5.852;2022-12-13T01:47:15;101286.34;;;-3.39;89.50
76070;BME280;64768;51.738;5.852;2022-12-13T01:49:46;101275.38;;;-3.37;89.83
76070;BME280;64768;51.738;5.852;2022-12-13T01:52:16;101274.91;;;-3.39;90.01
76070;BME280;64768;51.738;5.852;2022-12-13T01:54:47;101281.00;;;-3.39;89.81
76070;BME280;64768;51.738;5.852;2022-12-13T01:57:17;101273.63;;;-3.42;90.06
76070;BME280;64768;51.738;5.852;2022-12-13T01:59:48;101269.16;;;-3.46;89.97
76070;BME280;64768;51.738;5.852;2022-12-13T02:02:20;101274.69;;;-3.43;89.47
76070;BME280;64768;51.738;5.852;2022-12-13T02:04:53;101273.88;;;-3.43;89.47
76070;BME280;64768;51.738;5.852;2022-12-13T02:07:26;101276.28;;;-3.42;89.91
76070;BME280;64768;51.738;5.852;2022-12-13T02:09:58;101272.00;;;-3.43;89.69
76070;BME280;64768;51.738;5.852;2022-12-13T02:12:29;101274.69;;;-3.43;89.75
76070;BME280;64768;51.738;5.852;2022-12-13T02:15:00;101267.78;;;-3.44;89.85
76070;BME280;64768;51.738;5.852;2022-12-13T02:17:48;101273.22;;;-3.35;89.43
76070;BME280;64768;51.738;5.852;2022-12-13T02:26:40;101272.41;;;-3.36;89.33
76070;BME280;64768;51.738;5.852;2022-12-13T02:32:23;101281.69;;;-3.33;89.31
76070;BME280;64768;51.738;5.852;2022-12-13T02:35:02;101262.75;;;-3.45;89.34
76070;BME280;64768;51.738;5.852;2022-12-13T02:37:40;101265.03;;;-3.39;89.62
76070;BME280;64768;51.738;5.852;2022-12-13T02:40:17;101271.94;;;-3.38;89.70
76070;BME280;64768;51.738;5.852;2022-12-13T02:42:53;101263.94;;;-3.38;89.57
76070;BME280;64768;51.738;5.852;2022-12-13T02:45:28;101265.22;;;-3.35;89.50
76070;BME280;64768;51.738;5.852;2022-12-13T02:48:03;101253.78;;;-3.36;89.59
76070;BME280;64768;51.738;5.852;2022-12-13T02:50:33;101260.19;;;-3.37;89.59
76070;BME280;64768;51.738;5.852;2022-12-13T02:53:04;101254.56;;;-3.35;89.96
76070;BME280;64768;51.738;5.852;2022-12-13T02:55:36;101257.34;;;-3.40;89.49
76070;BME280;64768;51.738;5.852;2022-12-13T02:58:11;101241.38;;;-3.40;89.70
76070;BME280;64768;51.738;5.852;2022-12-13T03:00:50;101247.19;;;-3.38;89.80
76070;BME280;64768;51.738;5.852;2022-12-13T03:03:31;101245.13;;;-3.41;89.71
76070;BME280;64768;51.738;5.852;2022-12-13T03:06:15;101259.50;;;-3.42;89.84
76070;BME280;64768;51.738;5.852;2022-12-13T03:09:16;101244.91;;;-3.45;90.08
76070;BME280;64768;51.738;5.852;2022-12-13T03:11:57;101245.19;;;-3.46;90.23
76070;BME280;64768;51.738;5.852;2022-12-13T03:14:50;101234.06;;;-3.48;90.49
76070;BME280;64768;51.738;5.852;2022-12-13T03:17:23;101245.31;;;-3.51;90.46
76070;BME280;64768;51.738;5.852;2022-12-13T03:19:55;101247.00;;;-3.55;90.88
76070;BME280;64768;51.738;5.852;2022-12-13T03:22:24;101249.06;;;-3.52;90.53
76070;BME280;64768;51.738;5.852;2022-12-13T03:24:55;101231.41;;;-3.62;90.61
76070;BME280;64768;51.738;5.852;2022-12-13T03:27:23;101236.59;;;-3.43;90.55
76070;BME280;64768;51.738;5.852;2022-12-13T03:29:52;101222.53;;;-3.57;90.63
76070;BME280;64768;51.738;5.852;2022-12-13T03:32:20;101232.66;;;-3.46;90.70
76070;BME280;64768;51.738;5.852;2022-12-13T03:34:49;101236.41;;;-3.47;90.62
76070;BME280;64768;51.738;5.852;2022-12-13T03:37:20;101235.75;;;-3.39;90.13
76070;BME280;64768;51.738;5.852;2022-12-13T03:39:49;101239.97;;;-3.38;90.22
76070;BME280;64768;51.738;5.852;2022-12-13T03:42:18;101237.13;;;-3.41;90.11
76070;BME280;64768;51.738;5.852;2022-12-13T03:44:47;101237.91;;;-3.41;89.90
76070;BME280;64768;51.738;5.852;2022-12-13T03:47:15;101239.50;;;-3.40;90.14
76070;BME280;64768;51.738;5.852;2022-12-13T03:49:45;101239.56;;;-3.31;89.97
76070;BME280;64768;51.738;5.852;2022-12-13T03:52:16;101241.44;;;-3.32;89.83
76070;BME280;64768;51.738;5.852;2022-12-13T03:54:51;101238.16;;;-3.28;89.80
76070;BME280;64768;51.738;5.852;2022-12-13T03:57:19;101243.41;;;-3.23;89.59
76070;BME280;64768;51.738;5.852;2022-12-13T03:59:48;101228.00;;;-3.26;89.74
76070;BME280;64768;51.738;5.852;2022-12-13T04:02:16;101240.16;;;-3.34;89.70
76070;BME280;64768;51.738;5.852;2022-12-13T04:04:45;101241.25;;;-3.35;90.29
76070;BME280;64768;51.738;5.852;2022-12-13T04:07:13;101241.06;;;-3.25;89.87
76070;BME280;64768;51.738;5.852;2022-12-13T04:09:42;101245.00;;;-3.22;89.67
76070;BME280;64768;51.738;5.852;2022-12-13T04:12:13;101246.38;;;-3.25;89.68
76070;BME280;64768;51.738;5.852;2022-12-13T04:14:54;101247.34;;;-3.21;89.74
76070;BME280;64768;51.738;5.852;2022-12-13T04:17:23;101239.75;;;-3.27;89.59
76070;BME280;64768;51.738;5.852;2022-12-13T04:19:51;101241.31;;;-3.26;89.44
76070;BME280;64768;51.738;5.852;2022-12-13T04:22:20;101250.19;;;-3.17;89.36
76070;BME280;64768;51.738;5.852;2022-12-13T04:24:48;101246.16;;;-3.15;89.13
76070;BME280;64768;51.738;5.852;2022-12-13T04:27:19;101240.81;;;-3.15;89.00
76070;BME280;64768;51.738;5.852;2022-12-13T04:29:48;101231.56;;;-3.17;89.37
76070;BME280;64768;51.738;5.852;2022-12-13T04:32:16;101234.81;;;-3.20;89.04
76070;BME280;64768;51.738;5.852;2022-12-13T04:34:45;101222.28;;;-3.20;89.06
76070;BME280;64768;51.738;5.852;2022-12-13T04:37:13;101233.72;;;-3.19;89.19
76070;BME280;64768;51.738;5.852;2022-12-13T04:39:42;101229.50;;;-3.20;89.50
76070;BME280;64768;51.738;5.852;2022-12-13T04:42:11;101230.28;;;-3.20;89.27
76070;BME280;64768;51.738;5.852;2022-12-13T04:44:45;101229.78;;;-3.22;89.13
76070;BME280;64768;51.738;5.852;2022-12-13T04:47:14;101231.66;;;-3.22;89.03
76070;BME280;64768;51.738;5.852;2022-12-13T04:49:42;101218.44;;;-3.27;89.62
76070;BME280;64768;51.738;5.852;2022-12-13T04:52:12;101224.47;;;-3.36;89.53
76070;BME280;64768;51.738;5.852;2022-12-13T04:54:41;101220.53;;;-3.24;89.41
76070;BME280;64768;51.738;5.852;2022-12-13T04:57:10;101229.59;;;-3.25;89.22
76070;BME280;64768;51.738;5.852;2022-12-13T04:59:39;101225.56;;;-3.23;89.15
76070;BME280;64768;51.738;5.852;2022-12-13T05:02:10;101228.31;;;-3.28;89.13
76070;BME280;64768;51.738;5.852;2022-12-13T05:04:39;101228.53;;;-3.24;88.98
76070;BME280;64768;51.738;5.852;2022-12-13T05:07:07;101225.16;;;-3.30;89.41
76070;BME280;64768;51.738;5.852;2022-12-13T05:09:36;101221.09;;;-3.27;89.46
76070;BME280;64768;51.738;5.852;2022-12-13T05:12:05;101221.09;;;-3.27;89.36
76070;BME280;64768;51.738;5.852;2022-12-13T05:14:33;101225.56;;;-3.23;89.06
76070;BME280;64768;51.738;5.852;2022-12-13T05:17:02;101229.59;;;-3.25;89.17
76070;BME280;64768;51.738;5.852;2022-12-13T05:19:33;101223.75;;;-3.27;89.21
76070;BME280;64768;51.738;5.852;2022-12-13T05:22:02;101220.63;;;-3.29;89.02
76070;BME280;64768;51.738;5.852;2022-12-13T05:24:30;101222.31;;;-3.34;89.42
76070;BME280;64768;51.738;5.852;2022-12-13T05:26:59;101213.34;;;-3.38;89.21
76070;BME280;64768;51.738;5.852;2022-12-13T05:29:30;101215.88;;;-3.33;89.49
76070;BME280;64768;51.738;5.852;2022-12-13T05:31:59;101206.22;;;-3.42;89.20
76070;BME280;64768;51.738;5.852;2022-12-13T05:34:27;101196.19;;;-3.45;89.25
76070;BME280;64768;51.738;5.852;2022-12-13T05:36:59;101208.31;;;-3.39;89.47
76070;BME280;64768;51.738;5.852;2022-12-13T05:39:28;101207.53;;;-3.40;89.66
76070;BME280;64768;51.738;5.852;2022-12-13T05:41:58;101202.19;;;-3.40;89.55
76070;BME280;64768;51.738;5.852;2022-12-13T05:44:27;101203.56;;;-3.42;89.64
76070;BME280;64768;51.738;5.852;2022-12-13T05:46:55;101194.31;;;-3.45;89.74
76070;BME280;64768;51.738;5.852;2022-12-13T05:49:24;101197.38;;;-3.38;89.41
76070;BME280;64768;51.738;5.852;2022-12-13T05:51:52;101200.81;;;-3.37;89.47
76070;BME280;64768;51.738;5.852;2022-12-13T05:54:23;101197.19;;;-3.41;89.43
76070;BME280;64768;51.738;5.852;2022-12-13T05:56:52;101193.44;;;-3.40;89.29
76070;BME280;64768;51.738;5.852;2022-12-13T05:59:20;101188.88;;;-3.40;89.29
76070;BME280;64768;51.738;5.852;2022-12-13T06:01:49;101187.19;;;-3.36;89.33
76070;BME280;64768;51.738;5.852;2022-12-13T06:04:17;101192.91;;;-3.42;89.51
76070;BME280;64768;51.738;5.852;2022-12-13T06:06:46;101189.28;;;-3.46;89.64
76070;BME280;64768;51.738;5.852;2022-12-13T06:09:14;101193.72;;;-3.42;89.25
76070;BME280;64768;51.738;5.852;2022-12-13T06:11:46;101192.91;;;-3.42;89.39
76070;BME280;64768;51.738;5.852;2022-12-13T06:14:16;101187.81;;;-3.39;89.14
76070;BME280;64768;51.738;5.852;2022-12-13T06:16:44;101177.22;;;-3.44;89.38
76070;BME280;64768;51.738;5.852;2022-12-13T06:19:13;101185.53;;;-3.45;89.22
76070;BME280;64768;51.738;5.852;2022-12-13T06:21:41;101174.38;;;-3.47;89.23
76070;BME280;64768;51.738;5.852;2022-12-13T06:24:10;101186.25;;;-3.53;89.41
76070;BME280;64768;51.738;5.852;2022-12-13T06:26:38;101191.44;;;-3.48;89.62
76070;BME280;64768;51.738;5.852;2022-12-13T06:29:10;101193.63;;;-3.50;89.56
76070;BME280;64768;51.738;5.852;2022-12-13T06:31:38;101170.66;;;-3.60;89.67
76070;BME280;64768;51.738;5.852;2022-12-13T06:34:07;101182.69;;;-3.49;89.55
76070;BME280;64768;51.738;5.852;2022-12-13T06:36:35;101186.91;;;-3.48;89.40
76070;BME280;64768;51.738;5.852;2022-12-13T06:39:05;101184.56;;;-3.49;89.42
76070;BME280;64768;51.738;5.852;2022-12-13T06:41:34;101177.94;;;-3.52;89.59
76070;BME280;64768;51.738;5.852;2022-12-13T06:44:04;101188.31;;;-3.50;89.34
76070;BME280;64768;51.738;5.852;2022-12-13T06:46:35;101179.81;;;-3.52;89.72
76070;BME280;64768;51.738;5.852;2022-12-13T06:49:04;101177.84;;;-3.60;89.71
76070;BME280;64768;51.738;5.852;2022-12-13T06:51:33;101178.63;;;-3.60;89.90
76070;BME280;64768;51.738;5.852;2022-12-13T06:54:02;101198.75;;;-3.54;89.80
76070;BME280;64768;51.738;5.852;2022-12-13T06:56:31;101192.75;;;-3.59;89.71
76070;BME280;64768;51.738;5.852;2022-12-13T06:58:59;101197.78;;;-3.58;89.58
76070;BME280;64768;51.738;5.852;2022-12-13T07:01:29;101192.97;;;-3.70;90.08
76070;BME280;64768;51.738;5.852;2022-12-13T07:04:00;101195.22;;;-3.63;90.24
76070;BME280;64768;51.738;5.852;2022-12-13T07:06:28;101189.28;;;-3.60;89.82
76070;BME280;64768;51.738;5.852;2022-12-13T07:08:57;101198.75;;;-3.54;89.51
76070;BME280;64768;51.738;5.852;2022-12-13T07:11:28;101186.91;;;-3.62;89.63
76070;BME280;64768;51.738;5.852;2022-12-13T07:13:58;101191.88;;;-3.55;89.70
76070;BME280;64768;51.738;5.852;2022-12-13T07:16:27;101186.06;;;-3.57;89.50
76070;BME280;64768;51.738;5.852;2022-12-13T07:18:57;101186.63;;;-3.60;89.59
76070;BME280;64768;51.738;5.852;2022-12-13T07:21:29;101186.72;;;-3.65;89.86
76070;BME280;64768;51.738;5.852;2022-12-13T07:23:58;101182.50;;;-3.66;89.75
76070;BME280;64768;51.738;5.852;2022-12-13T07:26:26;101195.69;;;-3.61;89.47
76070;BME280;64768;51.738;5.852;2022-12-13T07:28:55;101206.34;;;-3.61;89.67
76070;BME280;64768;51.738;5.852;2022-12-13T07:31:24;101198.97;;;-3.64;89.40
76070;BME280;64768;51.738;5.852;2022-12-13T07:33:53;101204.19;;;-3.59;89.23
76070;BME280;64768;51.738;5.852;2022-12-13T07:36:22;101214.44;;;-3.66;89.41
76070;BME280;64768;51.738;5.852;2022-12-13T07:38:54;101192.53;;;-3.77;89.78
76070;BME280;64768;51.738;5.852;2022-12-13T07:41:24;101208.81;;;-3.78;89.90
76070;BME280;64768;51.738;5.852;2022-12-13T07:43:54;101210.81;;;-3.70;89.92
76070;BME280;64768;51.738;5.852;2022-12-13T07:46:23;101210.38;;;-3.77;89.72
76070;BME280;64768;51.738;5.852;2022-12-13T07:48:51;101205.47;;;-3.84;89.99
76070;BME280;64768;51.738;5.852;2022-12-13T07:51:20;101209.59;;;-3.92;90.26
76070;BME280;64768;51.738;5.852;2022-12-13T07:53:48;101224.41;;;-3.85;90.26
76070;BME280;64768;51.738;5.852;2022-12-13T07:56:20;101218.31;;;-3.72;89.93
76070;BME280;64768;51.738;5.852;2022-12-13T07:58:48;101220.53;;;-3.79;89.96
76070;BME280;64768;51.738;5.852;2022-12-13T08:01:17;101225.88;;;-3.79;90.14
76070;BME280;64768;51.738;5.852;2022-12-13T08:03:46;101223.41;;;-3.89;90.41
76070;BME280;64768;51.738;5.852;2022-12-13T08:06:15;101223.91;;;-3.87;90.26
76070;BME280;64768;51.738;5.852;2022-12-13T08:08:44;101233.38;;;-3.81;90.16
76070;BME280;64768;51.738;5.852;2022-12-13T08:11:15;101223.97;;;-3.93;90.33
76070;BME280;64768;51.738;5.852;2022-12-13T08:13:46;101232.69;;;-3.87;90.40
76070;BME280;64768;51.738;5.852;2022-12-13T08:16:17;101234.94;;;-3.80;90.35
76070;BME280;64768;51.738;5.852;2022-12-13T08:18:46;101236.63;;;-3.84;90.35
76070;BME280;64768;51.738;5.852;2022-12-13T08:21:14;101226.47;;;-3.82;90.39
76070;BME280;64768;51.738;5.852;2022-12-13T08:23:43;101224.78;;;-3.92;90.57
76070;BME280;64768;51.738;5.852;2022-12-13T08:26:11;101229.00;;;-3.91;90.93
76070;BME280;64768;51.738;5.852;2022-12-13T08:28:40;101229.53;;;-3.89;90.74
76070;BME280;64768;51.738;5.852;2022-12-13T08:31:11;101213.94;;;-3.96;91.11
76070;BME280;64768;51.738;5.852;2022-12-13T08:33:40;101219.97;;;-3.90;90.82
76070;BME280;64768;51.738;5.852;2022-12-13T08:36:14;101212.19;;;-3.86;90.83
76070;BME280;64768;51.738;5.852;2022-12-13T08:38:43;101205.97;;;-3.82;91.03
76070;BME280;64768;51.738;5.852;2022-12-13T08:41:12;101209.13;;;-3.80;91.49
76070;BME280;64768;51.738;5.852;2022-12-13T08:43:40;101211.97;;;-3.76;91.64
76070;BME280;64768;51.738;5.852;2022-12-13T08:46:12;101223.63;;;-3.72;91.87
76070;BME280;64768;51.738;5.852;2022-12-13T08:48:40;101214.94;;;-3.64;91.87
76070;BME280;64768;51.738;5.852;2022-12-13T08:51:10;101226.06;;;-3.62;91.37
76070;BME280;64768;51.738;5.852;2022-12-13T08:53:40;101226.84;;;-3.48;91.38
76070;BME280;64768;51.738;5.852;2022-12-13T08:56:10;101228.84;;;-3.40;90.76
76070;BME280;64768;51.738;5.852;2022-12-13T08:58:39;101233.16;;;-3.44;90.49
76070;BME280;64768;51.738;5.852;2022-12-13T09:01:11;101241.06;;;-3.39;90.81
76070;BME280;64768;51.738;5.852;2022-12-13T09:03:39;101246.59;;;-3.49;90.63
76070;BME280;64768;51.738;5.852;2022-12-13T09:06:09;101245.00;;;-3.50;91.08
76070;BME280;64768;51.738;5.852;2022-12-13T09:08:39;101235.13;;;-3.36;90.68
76070;BME280;64768;51.738;5.852;2022-12-13T09:11:09;101234.84;;;-3.34;90.19
76070;BME280;64768;51.738;5.852;2022-12-13T09:13:38;101235.31;;;-3.32;90.44
76070;BME280;64768;51.738;5.852;2022-12-13T09:16:13;101236.91;;;-3.31;90.30
76070;BME280;64768;51.738;5.852;2022-12-13T09:18:42;101237.19;;;-3.33;90.23
76070;BME280;64768;51.738;5.852;2022-12-13T09:21:13;101239.19;;;-3.24;90.04
76070;BME280;64768;51.738;5.852;2022-12-13T09:23:41;101248.13;;;-3.20;89.89
76070;BME280;64768;51.738;5.852;2022-12-13T09:26:12;101247.06;;;-3.19;90.08
76070;BME280;64768;51.738;5.852;2022-12-13T09:28:41;101237.31;;;-3.24;89.91
76070;BME280;64768;51.738;5.852;2022-12-13T09:31:14;101238.00;;;-3.32;90.67
76070;BME280;64768;51.738;5.852;2022-12-13T09:33:43;101244.28;;;-3.28;90.49
76070;BME280;64768;51.738;5.852;2022-12-13T09:36:14;101244.88;;;-3.31;90.44
76070;BME280;64768;51.738;5.852;2022-12-13T09:38:44;101244.50;;;-3.38;91.05
76070;BME280;64768;51.738;5.852;2022-12-13T09:41:16;101245.78;;;-3.36;91.24
76070;BME280;64768;51.738;5.852;2022-12-13T09:43:51;101247.97;;;-3.38;91.24
76070;BME280;64768;51.738;5.852;2022-12-13T09:46:26;101255.75;;;-3.41;91.80
76070;BME280;64768;51.738;5.852;2022-12-13T09:48:56;101241.75;;;-3.47;91.81
76070;BME280;64768;51.738;5.852;2022-12-13T09:51:26;101248.75;;;-3.37;91.97
76070;BME280;64768;51.738;5.852;2022-12-13T09:53:55;101243.13;;;-3.36;92.12
76070;BME280;64768;51.738;5.852;2022-12-13T09:56:23;101231.38;;;-3.35;91.99
76070;BME280;64768;51.738;5.852;2022-12-13T09:58:53;101235.81;;;-3.30;91.78
76070;BME280;64768;51.738;5.852;2022-12-13T10:01:25;101232.97;;;-3.34;91.44
76070;BME280;64768;51.738;5.852;2022-12-13T10:03:54;101223.41;;;-3.35;92.16
76070;BME280;64768;51.738;5.852;2022-12-13T10:06:27;101221.53;;;-3.34;91.88
76070;BME280;64768;51.738;5.852;2022-12-13T10:08:59;101222.97;;;-3.28;92.20
76070;BME280;64768;51.738;5.852;2022-12-13T10:11:28;101219.13;;;-3.22;91.55
76070;BME280;64768;51.738;5.852;2022-12-13T10:14:00;101218.44;;;-3.27;92.14
76070;BME280;64768;51.738;5.852;2022-12-13T10:16:41;101214.78;;;-3.18;92.18
76070;BME280;64768;51.738;5.852;2022-12-13T10:19:15;101211.94;;;-3.21;92.13
76070;BME280;64768;51.738;5.852;2022-12-13T10:21:47;101213.38;;;-3.15;92.10
76070;BME280;64768;51.738;5.852;2022-12-13T10:24:18;101209.94;;;-3.16;92.54
76070;BME280;64768;51.738;5.852;2022-12-13T10:26:50;101201.03;;;-3.11;92.20
76070;BME280;64768;51.738;5.852;2022-12-13T10:29:19;101206.38;;;-3.11;92.64
76070;BME280;64768;51.738;5.852;2022-12-13T10:31:51;101200.47;;;-3.08;92.30
76070;BME280;64768;51.738;5.852;2022-12-13T10:34:22;101189.81;;;-3.08;92.46
76070;BME280;64768;51.738;5.852;2022-12-13T10:36:51;101187.13;;;-3.08;92.73
76070;BME280;64768;51.738;5.852;2022-12-13T10:39:36;101179.81;;;-3.03;92.72
76070;BME280;64768;51.738;5.852;2022-12-13T10:42:11;101179.06;;;-2.94;92.21
76070;BME280;64768;51.738;5.852;2022-12-13T10:44:40;101178.28;;;-2.95;92.68
76070;BME280;64768;51.738;5.852;2022-12-13T10:47:17;101175.84;;;-2.91;93.08
76070;BME280;64768;51.738;5.852;2022-12-13T10:49:53;101171.94;;;-2.85;93.07
76070;BME280;64768;51.738;5.852;2022-12-13T10:52:27;101158.00;;;-2.82;92.85
76070;BME280;64768;51.738;5.852;2022-12-13T10:54:59;101171.41;;;-2.74;92.90
76070;BME280;64768;51.738;5.852;2022-12-13T10:57:30;101166.13;;;-2.65;92.73
76070;BME280;64768;51.738;5.852;2022-12-13T10:59:59;101164.72;;;-2.62;92.79
76070;BME280;64768;51.738;5.852;2022-12-13T11:02:33;101161.47;;;-2.59;92.81
76070;BME280;64768;51.738;5.852;2022-12-13T11:05:23;101151.75;;;-2.55;93.43
76070;BME280;64768;51.738;5.852;2022-12-13T11:07:53;101149.44;;;-2.48;93.03
76070;BME280;64768;51.738;5.852;2022-12-13T11:10:24;101159.00;;;-2.47;93.47
76070;BME280;64768;51.738;5.852;2022-12-13T11:12:59;101155.75;;;-2.44;93.48
76070;BME280;64768;51.738;5.852;2022-12-13T11:15:31;101162.03;;;-2.40;93.64
76070;BME280;64768;51.738;5.852;2022-12-13T11:18:06;101152.63;;;-2.37;93.32
76070;BME280;64768;51.738;5.852;2022-12-13T11:20:37;101152.03;;;-2.34;93.60
76070;BME280;64768;51.738;5.852;2022-12-13T11:23:13;101149.03;;;-2.33;93.27
76070;BME280;64768;51.738;5.852;2022-12-13T11:25:47;101139.31;;;-2.29;93.71
76070;BME280;64768;51.738;5.852;2022-12-13T11:28:34;101135.28;;;-2.26;93.53
76070;BME280;64768;51.738;5.852;2022-12-13T11:31:10;101139.38;;;-2.20;93.26
76070;BME280;64768;51.738;5.852;2022-12-13T11:33:52;101133.28;;;-2.12;93.30
76070;BME280;64768;51.738;5.852;2022-12-13T11:36:32;101136.13;;;-2.08;93.47
76070;BME280;64768;51.738;5.852;2022-12-13T11:39:13;101129.56;;;-2.02;93.47
76070;BME280;64768;51.738;5.852;2022-12-13T11:41:49;101130.50;;;-1.98;93.46
76070;BME280;64768;51.738;5.852;2022-12-13T11:44:26;101132.25;;;-1.94;93.48
76070;BME280;64768;51.738;5.852;2022-12-13T11:46:57;101132.09;;;-1.89;93.38
76070;BME280;64768;51.738;5.852;2022-12-13T11:49:37;101126.94;;;-1.85;93.57
76070;BME280;64768;51.738;5.852;2022-12-13T11:52:13;101121.16;;;-1.78;93.30
76070;BME280;64768;51.738;5.852;2022-12-13T11:54:48;101123.03;;;-1.79;93.11
76070;BME280;64768;51.738;5.852;2022-12-13T11:57:29;101125.06;;;-1.76;92.42
76070;BME280;64768;51.738;5.852;2022-12-13T12:00:06;101121.78;;;-1.73;93.50
76070;BME280;64768;51.738;5.852;2022-12-13T12:02:38;101116.59;;;-1.69;93.49
76070;BME280;64768;51.738;5.852;2022-12-13T12:05:21;101120.53;;;-1.67;93.18
76070;BME280;64768;51.738;5.852;2022-12-13T12:07:56;101099.16;;;-1.67;93.16
76070;BME280;64768;51.738;5.852;2022-12-13T12:10:29;101102.00;;;-1.63;93.63
76070;BME280;64768;51.738;5.852;2022-12-13T12:13:06;101109.41;;;-1.60;93.27
76070;BME280;64768;51.738;5.852;2022-12-13T12:15:41;101112.38;;;-1.62;93.62
76070;BME280;64768;51.738;5.852;2022-12-13T12:18:13;101105.16;;;-1.61;93.25
76070;BME280;64768;51.738;5.852;2022-12-13T12:20:54;101109.56;;;-1.57;93.42
76070;BME280;64768;51.738;5.852;2022-12-13T12:23:36;101100.75;;;-1.57;93.47
76070;BME280;64768;51.738;5.852;2022-12-13T12:26:10;101091.31;;;-1.63;93.91
76070;BME280;64768;51.738;5.852;2022-12-13T12:28:55;101101.69;;;-1.62;93.73
76070;BME280;64768;51.738;5.852;2022-12-13T12:31:30;101112.66;;;-1.63;94.54
76070;BME280;64768;51.738;5.852;2022-12-13T12:34:12;101094.28;;;-1.65;94.26
76070;BME280;64768;51.738;5.852;2022-12-13T12:36:58;101101.69;;;-1.62;94.71
76070;BME280;64768;51.738;5.852;2022-12-13T12:39:43;101102.00;;;-1.63;93.64
76070;BME280;64768;51.738;5.852;2022-12-13T12:42:28;101104.38;;;-1.62;94.47
76070;BME280;64768;51.738;5.852;2022-12-13T12:45:15;101099.19;;;-1.58;93.83
76070;BME280;64768;51.738;5.852;2022-12-13T12:47:55;101100.59;;;-1.52;94.29
76070;BME280;64768;51.738;5.852;2022-12-13T12:50:33;101100.59;;;-1.52;94.05
76070;BME280;64768;51.738;5.852;2022-12-13T12:53:16;101096.50;;;-1.49;94.00
76070;BME280;64768;51.738;5.852;2022-12-13T12:55:57;101100.75;;;-1.48;94.34
76070;BME280;64768;51.738;5.852;2022-12-13T12:58:33;101098.06;;;-1.48;95.02
76070;BME280;64768;51.738;5.852;2022-12-13T13:01:16;101095.75;;;-1.41;93.85
76070;BME280;64768;51.738;5.852;2022-12-13T13:03:50;101094.97;;;-1.42;94.05
76070;BME280;64768;51.738;5.852;2022-12-13T13:06:23;101093.53;;;-1.39;93.91
76070;BME280;64768;51.738;5.852;2022-12-13T13:08:59;101090.88;;;-1.39;94.72
76070;BME280;64768;51.738;5.852;2022-12-13T13:11:30;101087.09;;;-1.38;94.18
76070;BME280;64768;51.738;5.852;2022-12-13T13:14:23;101093.84;;;-1.32;94.10
76070;BME280;64768;51.738;5.852;2022-12-13T13:16:52;101093.53;;;-1.31;94.37
76070;BME280;64768;51.738;5.852;2022-12-13T13:19:42;101093.84;;;-1.32;94.69
76070;BME280;64768;51.738;5.852;2022-12-13T13:22:35;101096.50;;;-1.32;94.54
76070;BME280;64768;51.738;5.852;2022-12-13T13:25:28;101095.13;;;-1.30;94.60
76070;BME280;64768;51.738;5.852;2022-12-13T13:28:09;101095.13;;;-1.30;95.04